Startpagina
METAR-TAF:

METAR-TAF

Vliegvelden :

Malé, Hulhule Island, Maldiven

Malé International Airport

breedte: 04-12N, lengte: 073-32E, hoogte: 2 m

Actueel weer

Dit bericht is 41 minuten geleden gemaakt, om 00:00 UTC
Wind 6 kt uit het noordnoordwesten
Temperatuur 29°C
Vochtigheid 79%
Druk 1008 hPa
Zicht 10 km of meer
Weinig wolken op 1800 ft, Stapelwolken.
Verspreide wolken op 28000 ft

METAR: VRMM 250000Z 34006KT 9999 FEW018TCU SCT280 29/25 Q1008 NOSIG

Tijdstip: 05:41 (00:41 UTC)

Verwachting

Dit bericht is 1 uur en het 41 minuten geleden gemaakt, om 23:00 UTC
Verwachting geldig van 25 om 00 UTC tot 26 om 06 UTC
Wind 7 kt uit het noordnoordwesten
Zicht 10 km of meer
Weinig wolken op 1800 ft, Stapelwolken.
Tijdelijke
van 25 om 00 UTC tot 25 om 06 UTC
Zicht: 5000 m
Weinig wolken op 1700 ft, Cumulonimbus.
onweer, lichte regen

TAF: VRMM 242300Z 2500/2606 33007KT 9999 FEW018TCU TEMPO 2500/2506 5000 -TSRA FEW017CB

Waarnemingen en weersverwachtingen van meer dan 4000 vliegvelden (METAR en TAF).

De beschikbare stations zijn de gele en rode punten op de kaart.

Ga met uw muis naar het station om de naam te zien.

Klik dan om waarnemingen en weersverwachtingen te zien.

kaart wijzigen: klik op de groene knoppen met een zwart kruis om in te zoomen, op de groene knop met een streepje om uit te zoomen of op de groene pijlen voor aangrenzende kaarten.


METAR-TAF: